sensor_id;sensor_type;location;lat;lon;timestamp;P1;durP1;ratioP1;P2;durP2;ratioP2
40717;SDS011;26405;51.850;-2.246;2023-11-19T00:01:25;29.02;;;7.65;;
40717;SDS011;26405;51.850;-2.246;2023-11-19T00:03:50;33.72;;;9.18;;
40717;SDS011;26405;51.850;-2.246;2023-11-19T00:08:42;35.80;;;9.13;;
40717;SDS011;26405;51.850;-2.246;2023-11-19T00:11:17;39.03;;;8.82;;
40717;SDS011;26405;51.850;-2.246;2023-11-19T00:13:42;33.83;;;8.77;;
40717;SDS011;26405;51.850;-2.246;2023-11-19T00:16:07;34.55;;;8.52;;
40717;SDS011;26405;51.850;-2.246;2023-11-19T00:18:37;33.35;;;8.63;;
40717;SDS011;26405;51.850;-2.246;2023-11-19T00:21:02;31.95;;;8.35;;
40717;SDS011;26405;51.850;-2.246;2023-11-19T00:23:27;32.47;;;9.23;;
40717;SDS011;26405;51.850;-2.246;2023-11-19T00:25:53;31.65;;;8.48;;
40717;SDS011;26405;51.850;-2.246;2023-11-19T00:28:18;37.92;;;8.65;;
40717;SDS011;26405;51.850;-2.246;2023-11-19T00:30:43;36.45;;;8.88;;
40717;SDS011;26405;51.850;-2.246;2023-11-19T00:33:09;33.58;;;8.27;;
40717;SDS011;26405;51.850;-2.246;2023-11-19T00:35:34;32.90;;;8.32;;
40717;SDS011;26405;51.850;-2.246;2023-11-19T00:37:59;32.65;;;8.38;;
40717;SDS011;26405;51.850;-2.246;2023-11-19T00:40:25;32.33;;;8.23;;
40717;SDS011;26405;51.850;-2.246;2023-11-19T00:42:51;33.95;;;9.43;;
40717;SDS011;26405;51.850;-2.246;2023-11-19T00:45:16;34.28;;;8.55;;
40717;SDS011;26405;51.850;-2.246;2023-11-19T00:47:41;31.00;;;7.72;;
40717;SDS011;26405;51.850;-2.246;2023-11-19T00:50:19;30.55;;;7.97;;
40717;SDS011;26405;51.850;-2.246;2023-11-19T00:52:46;34.33;;;8.75;;
40717;SDS011;26405;51.850;-2.246;2023-11-19T00:55:12;32.67;;;9.00;;
40717;SDS011;26405;51.850;-2.246;2023-11-19T00:57:39;35.65;;;9.13;;
40717;SDS011;26405;51.850;-2.246;2023-11-19T01:00:05;33.30;;;8.25;;
40717;SDS011;26405;51.850;-2.246;2023-11-19T01:02:51;36.30;;;9.00;;
40717;SDS011;26405;51.850;-2.246;2023-11-19T01:05:17;32.15;;;8.13;;
40717;SDS011;26405;51.850;-2.246;2023-11-19T01:07:46;33.35;;;8.45;;
40717;SDS011;26405;51.850;-2.246;2023-11-19T01:10:12;32.23;;;8.80;;
40717;SDS011;26405;51.850;-2.246;2023-11-19T01:12:37;32.55;;;7.45;;
40717;SDS011;26405;51.850;-2.246;2023-11-19T01:15:03;31.35;;;8.20;;
40717;SDS011;26405;51.850;-2.246;2023-11-19T01:17:29;32.28;;;8.48;;
40717;SDS011;26405;51.850;-2.246;2023-11-19T01:19:59;36.25;;;8.52;;
40717;SDS011;26405;51.850;-2.246;2023-11-19T01:22:24;38.58;;;9.05;;
40717;SDS011;26405;51.850;-2.246;2023-11-19T01:24:50;29.65;;;8.15;;
40717;SDS011;26405;51.850;-2.246;2023-11-19T01:27:17;33.72;;;8.40;;
40717;SDS011;26405;51.850;-2.246;2023-11-19T01:29:45;34.50;;;7.85;;
40717;SDS011;26405;51.850;-2.246;2023-11-19T01:32:10;35.30;;;9.10;;
40717;SDS011;26405;51.850;-2.246;2023-11-19T01:34:40;34.20;;;8.07;;
40717;SDS011;26405;51.850;-2.246;2023-11-19T01:37:06;33.13;;;8.27;;
40717;SDS011;26405;51.850;-2.246;2023-11-19T01:39:31;30.42;;;8.75;;
40717;SDS011;26405;51.850;-2.246;2023-11-19T01:41:56;31.58;;;7.95;;
40717;SDS011;26405;51.850;-2.246;2023-11-19T01:44:22;36.95;;;9.48;;
40717;SDS011;26405;51.850;-2.246;2023-11-19T01:46:47;32.72;;;7.53;;
40717;SDS011;26405;51.850;-2.246;2023-11-19T01:49:17;34.58;;;8.35;;
40717;SDS011;26405;51.850;-2.246;2023-11-19T01:51:48;32.38;;;8.18;;
40717;SDS011;26405;51.850;-2.246;2023-11-19T01:54:14;33.75;;;8.30;;
40717;SDS011;26405;51.850;-2.246;2023-11-19T01:56:40;34.53;;;8.70;;
40717;SDS011;26405;51.850;-2.246;2023-11-19T01:59:07;31.40;;;7.63;;
40717;SDS011;26405;51.850;-2.246;2023-11-19T02:01:33;36.70;;;8.37;;
40717;SDS011;26405;51.850;-2.246;2023-11-19T02:04:11;33.50;;;8.43;;
40717;SDS011;26405;51.850;-2.246;2023-11-19T02:06:37;33.00;;;8.10;;
40717;SDS011;26405;51.850;-2.246;2023-11-19T02:09:07;30.95;;;8.30;;
40717;SDS011;26405;51.850;-2.246;2023-11-19T02:11:33;33.92;;;8.50;;
40717;SDS011;26405;51.850;-2.246;2023-11-19T02:14:00;34.35;;;8.60;;
40717;SDS011;26405;51.850;-2.246;2023-11-19T02:16:28;36.72;;;7.82;;
40717;SDS011;26405;51.850;-2.246;2023-11-19T02:18:53;35.58;;;8.88;;
40717;SDS011;26405;51.850;-2.246;2023-11-19T02:21:21;32.45;;;8.30;;
40717;SDS011;26405;51.850;-2.246;2023-11-19T02:23:47;34.95;;;8.32;;
40717;SDS011;26405;51.850;-2.246;2023-11-19T02:26:20;32.72;;;7.78;;
40717;SDS011;26405;51.850;-2.246;2023-11-19T02:28:49;37.08;;;8.70;;
40717;SDS011;26405;51.850;-2.246;2023-11-19T02:31:15;38.20;;;8.43;;
40717;SDS011;26405;51.850;-2.246;2023-11-19T02:33:40;33.72;;;8.50;;
40717;SDS011;26405;51.850;-2.246;2023-11-19T02:36:06;36.08;;;8.38;;
40717;SDS011;26405;51.850;-2.246;2023-11-19T02:38:35;30.40;;;8.02;;
40717;SDS011;26405;51.850;-2.246;2023-11-19T02:41:03;28.63;;;7.43;;
40717;SDS011;26405;51.850;-2.246;2023-11-19T02:43:31;36.33;;;9.23;;
40717;SDS011;26405;51.850;-2.246;2023-11-19T02:45:58;32.03;;;7.80;;
40717;SDS011;26405;51.850;-2.246;2023-11-19T02:48:23;34.00;;;7.97;;
40717;SDS011;26405;51.850;-2.246;2023-11-19T02:50:48;32.97;;;7.82;;
40717;SDS011;26405;51.850;-2.246;2023-11-19T02:53:14;31.70;;;7.68;;
40717;SDS011;26405;51.850;-2.246;2023-11-19T02:55:39;32.20;;;8.05;;
40717;SDS011;26405;51.850;-2.246;2023-11-19T02:58:06;29.05;;;7.32;;
40717;SDS011;26405;51.850;-2.246;2023-11-19T03:00:44;30.00;;;7.72;;
40717;SDS011;26405;51.850;-2.246;2023-11-19T03:03:17;32.38;;;8.02;;
40717;SDS011;26405;51.850;-2.246;2023-11-19T03:05:50;33.38;;;8.32;;
40717;SDS011;26405;51.850;-2.246;2023-11-19T03:08:16;34.80;;;8.27;;
40717;SDS011;26405;51.850;-2.246;2023-11-19T03:10:42;32.50;;;7.97;;
40717;SDS011;26405;51.850;-2.246;2023-11-19T03:13:10;32.35;;;8.43;;
40717;SDS011;26405;51.850;-2.246;2023-11-19T03:15:36;33.15;;;8.07;;
40717;SDS011;26405;51.850;-2.246;2023-11-19T03:18:02;30.23;;;7.80;;
40717;SDS011;26405;51.850;-2.246;2023-11-19T03:20:27;28.20;;;7.50;;
40717;SDS011;26405;51.850;-2.246;2023-11-19T03:22:55;31.27;;;7.97;;
40717;SDS011;26405;51.850;-2.246;2023-11-19T03:25:20;30.90;;;7.90;;
40717;SDS011;26405;51.850;-2.246;2023-11-19T03:27:45;30.00;;;7.93;;
40717;SDS011;26405;51.850;-2.246;2023-11-19T03:30:11;25.52;;;6.32;;
40717;SDS011;26405;51.850;-2.246;2023-11-19T03:32:36;24.17;;;6.20;;
40717;SDS011;26405;51.850;-2.246;2023-11-19T03:35:02;25.42;;;6.35;;
40717;SDS011;26405;51.850;-2.246;2023-11-19T03:37:29;21.45;;;5.30;;
40717;SDS011;26405;51.850;-2.246;2023-11-19T03:39:54;25.77;;;6.35;;
40717;SDS011;26405;51.850;-2.246;2023-11-19T03:42:20;17.90;;;4.30;;
40717;SDS011;26405;51.850;-2.246;2023-11-19T03:44:46;18.98;;;4.75;;
40717;SDS011;26405;51.850;-2.246;2023-11-19T03:47:11;19.13;;;4.25;;
40717;SDS011;26405;51.850;-2.246;2023-11-19T03:49:36;15.15;;;4.20;;
40717;SDS011;26405;51.850;-2.246;2023-11-19T03:52:02;13.65;;;3.58;;
40717;SDS011;26405;51.850;-2.246;2023-11-19T03:54:27;17.75;;;4.20;;
40717;SDS011;26405;51.850;-2.246;2023-11-19T03:56:53;13.43;;;3.45;;
40717;SDS011;26405;51.850;-2.246;2023-11-19T03:59:21;15.88;;;3.42;;
40717;SDS011;26405;51.850;-2.246;2023-11-19T04:01:46;16.35;;;4.10;;
40717;SDS011;26405;51.850;-2.246;2023-11-19T04:04:12;14.82;;;3.83;;
40717;SDS011;26405;51.850;-2.246;2023-11-19T04:06:37;18.80;;;4.10;;
40717;SDS011;26405;51.850;-2.246;2023-11-19T04:09:03;20.98;;;4.30;;
40717;SDS011;26405;51.850;-2.246;2023-11-19T04:11:28;20.83;;;4.50;;
40717;SDS011;26405;51.850;-2.246;2023-11-19T04:13:53;22.50;;;5.25;;
40717;SDS011;26405;51.850;-2.246;2023-11-19T04:16:18;25.80;;;5.38;;
40717;SDS011;26405;51.850;-2.246;2023-11-19T04:18:44;20.45;;;4.97;;
40717;SDS011;26405;51.850;-2.246;2023-11-19T04:21:09;22.00;;;5.35;;
40717;SDS011;26405;51.850;-2.246;2023-11-19T04:23:36;25.85;;;5.15;;
40717;SDS011;26405;51.850;-2.246;2023-11-19T04:26:02;24.70;;;5.68;;
40717;SDS011;26405;51.850;-2.246;2023-11-19T04:28:27;23.70;;;5.53;;
40717;SDS011;26405;51.850;-2.246;2023-11-19T04:30:52;23.67;;;6.20;;
40717;SDS011;26405;51.850;-2.246;2023-11-19T04:33:17;23.27;;;6.00;;
40717;SDS011;26405;51.850;-2.246;2023-11-19T04:35:43;22.88;;;5.50;;
40717;SDS011;26405;51.850;-2.246;2023-11-19T04:38:08;23.98;;;5.75;;
40717;SDS011;26405;51.850;-2.246;2023-11-19T04:40:33;24.48;;;5.65;;
40717;SDS011;26405;51.850;-2.246;2023-11-19T04:42:58;23.33;;;5.85;;
40717;SDS011;26405;51.850;-2.246;2023-11-19T04:45:24;28.60;;;6.20;;
40717;SDS011;26405;51.850;-2.246;2023-11-19T04:47:49;29.60;;;6.57;;
40717;SDS011;26405;51.850;-2.246;2023-11-19T04:50:14;24.00;;;6.07;;
40717;SDS011;26405;51.850;-2.246;2023-11-19T04:52:40;24.95;;;5.90;;
40717;SDS011;26405;51.850;-2.246;2023-11-19T04:55:05;29.83;;;6.75;;
40717;SDS011;26405;51.850;-2.246;2023-11-19T04:57:31;24.10;;;6.50;;
40717;SDS011;26405;51.850;-2.246;2023-11-19T05:00:06;21.48;;;5.43;;
40717;SDS011;26405;51.850;-2.246;2023-11-19T05:02:33;22.27;;;5.38;;
40717;SDS011;26405;51.850;-2.246;2023-11-19T05:05:00;26.20;;;5.97;;
40717;SDS011;26405;51.850;-2.246;2023-11-19T05:07:25;27.17;;;6.68;;
40717;SDS011;26405;51.850;-2.246;2023-11-19T05:09:51;28.17;;;6.80;;
40717;SDS011;26405;51.850;-2.246;2023-11-19T05:12:17;27.02;;;6.60;;
40717;SDS011;26405;51.850;-2.246;2023-11-19T05:14:42;28.73;;;7.15;;
40717;SDS011;26405;51.850;-2.246;2023-11-19T05:17:14;27.60;;;7.15;;
40717;SDS011;26405;51.850;-2.246;2023-11-19T05:19:39;30.15;;;6.60;;
40717;SDS011;26405;51.850;-2.246;2023-11-19T05:22:04;29.75;;;6.90;;
40717;SDS011;26405;51.850;-2.246;2023-11-19T05:24:31;27.70;;;7.40;;
40717;SDS011;26405;51.850;-2.246;2023-11-19T05:26:56;31.73;;;6.82;;
40717;SDS011;26405;51.850;-2.246;2023-11-19T05:29:23;28.33;;;7.03;;
40717;SDS011;26405;51.850;-2.246;2023-11-19T05:31:48;28.13;;;7.15;;
40717;SDS011;26405;51.850;-2.246;2023-11-19T05:34:14;31.13;;;7.50;;
40717;SDS011;26405;51.850;-2.246;2023-11-19T05:36:43;28.40;;;7.15;;
40717;SDS011;26405;51.850;-2.246;2023-11-19T05:39:09;33.50;;;7.65;;
40717;SDS011;26405;51.850;-2.246;2023-11-19T05:41:36;28.98;;;7.50;;
40717;SDS011;26405;51.850;-2.246;2023-11-19T05:44:04;39.15;;;8.23;;
40717;SDS011;26405;51.850;-2.246;2023-11-19T05:46:29;35.80;;;8.60;;
40717;SDS011;26405;51.850;-2.246;2023-11-19T05:48:55;28.50;;;7.25;;
40717;SDS011;26405;51.850;-2.246;2023-11-19T05:51:20;32.85;;;7.95;;
40717;SDS011;26405;51.850;-2.246;2023-11-19T05:53:45;31.05;;;7.70;;
40717;SDS011;26405;51.850;-2.246;2023-11-19T05:56:11;37.28;;;8.85;;
40717;SDS011;26405;51.850;-2.246;2023-11-19T05:58:37;37.65;;;8.60;;
40717;SDS011;26405;51.850;-2.246;2023-11-19T06:01:04;29.95;;;7.82;;
40717;SDS011;26405;51.850;-2.246;2023-11-19T06:03:30;28.92;;;7.45;;
40717;SDS011;26405;51.850;-2.246;2023-11-19T06:05:55;31.05;;;7.28;;
40717;SDS011;26405;51.850;-2.246;2023-11-19T06:08:20;27.20;;;7.15;;
40717;SDS011;26405;51.850;-2.246;2023-11-19T06:10:45;28.77;;;6.82;;
40717;SDS011;26405;51.850;-2.246;2023-11-19T06:13:11;29.02;;;7.05;;
40717;SDS011;26405;51.850;-2.246;2023-11-19T06:15:39;26.65;;;6.75;;
40717;SDS011;26405;51.850;-2.246;2023-11-19T06:18:05;29.33;;;6.45;;
40717;SDS011;26405;51.850;-2.246;2023-11-19T06:20:33;27.75;;;7.03;;
40717;SDS011;26405;51.850;-2.246;2023-11-19T06:22:58;31.00;;;7.28;;
40717;SDS011;26405;51.850;-2.246;2023-11-19T06:25:24;27.35;;;6.13;;
40717;SDS011;26405;51.850;-2.246;2023-11-19T06:27:49;29.15;;;7.22;;
40717;SDS011;26405;51.850;-2.246;2023-11-19T06:30:15;29.30;;;7.18;;
40717;SDS011;26405;51.850;-2.246;2023-11-19T06:32:40;28.02;;;6.65;;
40717;SDS011;26405;51.850;-2.246;2023-11-19T06:35:05;28.63;;;6.95;;
40717;SDS011;26405;51.850;-2.246;2023-11-19T06:37:32;27.92;;;6.35;;
40717;SDS011;26405;51.850;-2.246;2023-11-19T06:39:58;26.50;;;6.20;;
40717;SDS011;26405;51.850;-2.246;2023-11-19T06:42:24;24.77;;;6.00;;
40717;SDS011;26405;51.850;-2.246;2023-11-19T06:44:49;30.27;;;6.28;;
40717;SDS011;26405;51.850;-2.246;2023-11-19T06:47:14;31.50;;;6.97;;
40717;SDS011;26405;51.850;-2.246;2023-11-19T06:49:40;26.25;;;6.38;;
40717;SDS011;26405;51.850;-2.246;2023-11-19T06:52:05;28.63;;;6.32;;
40717;SDS011;26405;51.850;-2.246;2023-11-19T06:54:30;27.88;;;6.65;;
40717;SDS011;26405;51.850;-2.246;2023-11-19T06:56:56;29.15;;;6.72;;
40717;SDS011;26405;51.850;-2.246;2023-11-19T06:59:22;27.20;;;5.93;;
40717;SDS011;26405;51.850;-2.246;2023-11-19T07:01:49;27.42;;;6.47;;
40717;SDS011;26405;51.850;-2.246;2023-11-19T07:04:14;30.33;;;6.60;;
40717;SDS011;26405;51.850;-2.246;2023-11-19T07:06:39;26.10;;;6.53;;
40717;SDS011;26405;51.850;-2.246;2023-11-19T07:09:08;24.70;;;6.60;;
40717;SDS011;26405;51.850;-2.246;2023-11-19T07:11:39;25.30;;;6.70;;
40717;SDS011;26405;51.850;-2.246;2023-11-19T07:14:05;29.08;;;7.35;;
40717;SDS011;26405;51.850;-2.246;2023-11-19T07:16:31;27.40;;;7.10;;
40717;SDS011;26405;51.850;-2.246;2023-11-19T07:18:57;27.57;;;5.43;;
40717;SDS011;26405;51.850;-2.246;2023-11-19T07:21:24;25.80;;;6.50;;
40717;SDS011;26405;51.850;-2.246;2023-11-19T07:23:49;24.13;;;6.00;;
40717;SDS011;26405;51.850;-2.246;2023-11-19T07:28:42;24.05;;;5.22;;
40717;SDS011;26405;51.850;-2.246;2023-11-19T07:31:08;21.35;;;5.05;;
40717;SDS011;26405;51.850;-2.246;2023-11-19T07:33:33;20.40;;;4.53;;
40717;SDS011;26405;51.850;-2.246;2023-11-19T07:36:04;21.00;;;5.40;;
40717;SDS011;26405;51.850;-2.246;2023-11-19T07:38:30;22.65;;;4.78;;
40717;SDS011;26405;51.850;-2.246;2023-11-19T07:41:00;21.77;;;5.15;;
40717;SDS011;26405;51.850;-2.246;2023-11-19T07:43:27;20.40;;;4.63;;
40717;SDS011;26405;51.850;-2.246;2023-11-19T07:45:53;24.30;;;5.47;;
40717;SDS011;26405;51.850;-2.246;2023-11-19T07:48:18;22.42;;;5.00;;
40717;SDS011;26405;51.850;-2.246;2023-11-19T07:50:48;20.95;;;4.88;;
40717;SDS011;26405;51.850;-2.246;2023-11-19T07:53:15;25.15;;;5.55;;
40717;SDS011;26405;51.850;-2.246;2023-11-19T07:55:41;27.70;;;6.30;;
40717;SDS011;26405;51.850;-2.246;2023-11-19T07:58:07;27.95;;;6.22;;
40717;SDS011;26405;51.850;-2.246;2023-11-19T08:00:40;27.33;;;6.40;;
40717;SDS011;26405;51.850;-2.246;2023-11-19T08:03:06;24.90;;;6.43;;
40717;SDS011;26405;51.850;-2.246;2023-11-19T08:05:34;26.45;;;6.57;;
40717;SDS011;26405;51.850;-2.246;2023-11-19T08:07:59;29.13;;;6.65;;
40717;SDS011;26405;51.850;-2.246;2023-11-19T08:10:24;29.95;;;6.57;;
40717;SDS011;26405;51.850;-2.246;2023-11-19T08:12:50;30.63;;;7.57;;
40717;SDS011;26405;51.850;-2.246;2023-11-19T08:15:17;30.13;;;6.95;;
40717;SDS011;26405;51.850;-2.246;2023-11-19T08:17:42;25.27;;;6.13;;
40717;SDS011;26405;51.850;-2.246;2023-11-19T08:20:10;28.00;;;6.53;;
40717;SDS011;26405;51.850;-2.246;2023-11-19T08:22:38;30.27;;;7.22;;
40717;SDS011;26405;51.850;-2.246;2023-11-19T08:25:04;29.08;;;6.75;;
40717;SDS011;26405;51.850;-2.246;2023-11-19T08:27:30;27.23;;;6.45;;
40717;SDS011;26405;51.850;-2.246;2023-11-19T08:29:55;31.85;;;7.18;;
40717;SDS011;26405;51.850;-2.246;2023-11-19T08:32:22;31.63;;;6.97;;
40717;SDS011;26405;51.850;-2.246;2023-11-19T08:34:50;30.35;;;6.40;;
40717;SDS011;26405;51.850;-2.246;2023-11-19T08:37:16;29.55;;;8.02;;
40717;SDS011;26405;51.850;-2.246;2023-11-19T08:39:55;30.98;;;7.53;;
40717;SDS011;26405;51.850;-2.246;2023-11-19T08:42:21;31.17;;;7.75;;
40717;SDS011;26405;51.850;-2.246;2023-11-19T08:44:50;30.95;;;7.20;;
40717;SDS011;26405;51.850;-2.246;2023-11-19T08:47:15;27.83;;;6.93;;
40717;SDS011;26405;51.850;-2.246;2023-11-19T08:52:08;28.73;;;6.17;;
40717;SDS011;26405;51.850;-2.246;2023-11-19T08:54:33;27.42;;;6.25;;
40717;SDS011;26405;51.850;-2.246;2023-11-19T08:56:58;24.80;;;6.03;;
40717;SDS011;26405;51.850;-2.246;2023-11-19T08:59:24;27.33;;;6.55;;
40717;SDS011;26405;51.850;-2.246;2023-11-19T09:01:49;27.75;;;6.90;;
40717;SDS011;26405;51.850;-2.246;2023-11-19T09:04:15;26.35;;;7.10;;
40717;SDS011;26405;51.850;-2.246;2023-11-19T09:06:41;26.35;;;6.43;;
40717;SDS011;26405;51.850;-2.246;2023-11-19T09:09:06;26.88;;;6.55;;
40717;SDS011;26405;51.850;-2.246;2023-11-19T09:11:31;25.10;;;6.82;;
40717;SDS011;26405;51.850;-2.246;2023-11-19T09:13:57;27.85;;;7.00;;
40717;SDS011;26405;51.850;-2.246;2023-11-19T09:18:49;24.92;;;6.15;;
40717;SDS011;26405;51.850;-2.246;2023-11-19T09:21:14;25.63;;;6.38;;
40717;SDS011;26405;51.850;-2.246;2023-11-19T09:23:39;27.75;;;6.40;;
40717;SDS011;26405;51.850;-2.246;2023-11-19T09:26:08;23.10;;;5.65;;
40717;SDS011;26405;51.850;-2.246;2023-11-19T09:28:33;26.85;;;6.50;;
40717;SDS011;26405;51.850;-2.246;2023-11-19T09:31:02;25.83;;;5.85;;
40717;SDS011;26405;51.850;-2.246;2023-11-19T09:33:29;23.33;;;6.18;;
40717;SDS011;26405;51.850;-2.246;2023-11-19T09:35:55;25.00;;;6.82;;
40717;SDS011;26405;51.850;-2.246;2023-11-19T09:38:20;26.77;;;5.97;;
40717;SDS011;26405;51.850;-2.246;2023-11-19T09:40:45;25.85;;;5.95;;
40717;SDS011;26405;51.850;-2.246;2023-11-19T09:43:13;22.92;;;5.60;;
40717;SDS011;26405;51.850;-2.246;2023-11-19T09:45:51;24.27;;;5.93;;
40717;SDS011;26405;51.850;-2.246;2023-11-19T09:48:17;25.60;;;6.05;;
40717;SDS011;26405;51.850;-2.246;2023-11-19T09:50:46;25.25;;;6.40;;
40717;SDS011;26405;51.850;-2.246;2023-11-19T09:53:18;24.05;;;5.90;;
40717;SDS011;26405;51.850;-2.246;2023-11-19T09:55:49;21.13;;;5.28;;
40717;SDS011;26405;51.850;-2.246;2023-11-19T09:58:14;22.25;;;5.53;;
40717;SDS011;26405;51.850;-2.246;2023-11-19T10:00:49;22.95;;;5.00;;
40717;SDS011;26405;51.850;-2.246;2023-11-19T10:05:55;24.65;;;5.90;;
40717;SDS011;26405;51.850;-2.246;2023-11-19T10:08:24;23.13;;;5.77;;
40717;SDS011;26405;51.850;-2.246;2023-11-19T10:10:50;21.02;;;5.00;;
40717;SDS011;26405;51.850;-2.246;2023-11-19T10:13:18;20.95;;;5.10;;
40717;SDS011;26405;51.850;-2.246;2023-11-19T10:15:44;22.58;;;5.50;;
40717;SDS011;26405;51.850;-2.246;2023-11-19T10:18:10;21.35;;;4.45;;
40717;SDS011;26405;51.850;-2.246;2023-11-19T10:20:36;21.90;;;4.95;;
40717;SDS011;26405;51.850;-2.246;2023-11-19T10:23:05;19.37;;;4.93;;
40717;SDS011;26405;51.850;-2.246;2023-11-19T10:25:30;19.73;;;4.85;;
40717;SDS011;26405;51.850;-2.246;2023-11-19T10:27:59;18.10;;;4.32;;
40717;SDS011;26405;51.850;-2.246;2023-11-19T10:30:29;17.85;;;4.55;;
40717;SDS011;26405;51.850;-2.246;2023-11-19T10:35:53;22.27;;;5.60;;
40717;SDS011;26405;51.850;-2.246;2023-11-19T10:38:18;22.75;;;4.80;;
40717;SDS011;26405;51.850;-2.246;2023-11-19T10:40:44;23.60;;;5.65;;
40717;SDS011;26405;51.850;-2.246;2023-11-19T10:43:19;19.95;;;5.15;;
40717;SDS011;26405;51.850;-2.246;2023-11-19T10:45:51;25.27;;;5.10;;
40717;SDS011;26405;51.850;-2.246;2023-11-19T10:48:17;24.75;;;5.93;;
40717;SDS011;26405;51.850;-2.246;2023-11-19T10:50:47;19.25;;;5.32;;
40717;SDS011;26405;51.850;-2.246;2023-11-19T10:53:17;23.13;;;5.65;;
40717;SDS011;26405;51.850;-2.246;2023-11-19T10:55:52;25.23;;;5.70;;
40717;SDS011;26405;51.850;-2.246;2023-11-19T10:58:39;22.30;;;5.63;;
40717;SDS011;26405;51.850;-2.246;2023-11-19T11:01:19;26.05;;;5.82;;
40717;SDS011;26405;51.850;-2.246;2023-11-19T11:03:46;26.48;;;6.30;;
40717;SDS011;26405;51.850;-2.246;2023-11-19T11:06:11;27.08;;;6.05;;
40717;SDS011;26405;51.850;-2.246;2023-11-19T11:08:46;28.27;;;6.88;;
40717;SDS011;26405;51.850;-2.246;2023-11-19T11:11:12;23.95;;;6.43;;
40717;SDS011;26405;51.850;-2.246;2023-11-19T11:13:38;26.13;;;6.72;;
40717;SDS011;26405;51.850;-2.246;2023-11-19T11:16:33;25.40;;;5.97;;
40717;SDS011;26405;51.850;-2.246;2023-11-19T11:21:38;27.27;;;6.18;;
40717;SDS011;26405;51.850;-2.246;2023-11-19T11:29:33;26.05;;;6.15;;
40717;SDS011;26405;51.850;-2.246;2023-11-19T11:40:22;23.00;;;5.40;;
40717;SDS011;26405;51.850;-2.246;2023-11-19T11:42:49;20.45;;;4.55;;
40717;SDS011;26405;51.850;-2.246;2023-11-19T11:45:19;22.25;;;4.93;;
40717;SDS011;26405;51.850;-2.246;2023-11-19T11:50:22;16.40;;;3.97;;
40717;SDS011;26405;51.850;-2.246;2023-11-19T11:58:08;16.42;;;4.10;;
40717;SDS011;26405;51.850;-2.246;2023-11-19T12:00:39;19.43;;;4.20;;
40717;SDS011;26405;51.850;-2.246;2023-11-19T12:03:08;18.20;;;4.95;;
40717;SDS011;26405;51.850;-2.246;2023-11-19T12:05:47;17.98;;;4.57;;
40717;SDS011;26405;51.850;-2.246;2023-11-19T12:08:22;14.50;;;3.88;;
40717;SDS011;26405;51.850;-2.246;2023-11-19T12:10:56;16.70;;;3.92;;
40717;SDS011;26405;51.850;-2.246;2023-11-19T12:13:48;19.92;;;4.22;;
40717;SDS011;26405;51.850;-2.246;2023-11-19T12:16:18;15.85;;;3.53;;
40717;SDS011;26405;51.850;-2.246;2023-11-19T12:18:56;17.33;;;3.85;;
40717;SDS011;26405;51.850;-2.246;2023-11-19T12:21:33;16.20;;;3.97;;
40717;SDS011;26405;51.850;-2.246;2023-11-19T12:24:13;14.35;;;3.58;;
40717;SDS011;26405;51.850;-2.246;2023-11-19T12:26:39;14.60;;;3.50;;
40717;SDS011;26405;51.850;-2.246;2023-11-19T12:29:13;15.87;;;3.67;;
40717;SDS011;26405;51.850;-2.246;2023-11-19T12:31:43;17.42;;;4.10;;
40717;SDS011;26405;51.850;-2.246;2023-11-19T12:34:09;18.27;;;3.88;;
40717;SDS011;26405;51.850;-2.246;2023-11-19T12:36:36;18.25;;;4.32;;
40717;SDS011;26405;51.850;-2.246;2023-11-19T12:39:02;13.15;;;3.03;;
40717;SDS011;26405;51.850;-2.246;2023-11-19T12:41:29;13.67;;;3.30;;
40717;SDS011;26405;51.850;-2.246;2023-11-19T12:44:08;12.18;;;2.90;;
40717;SDS011;26405;51.850;-2.246;2023-11-19T12:46:33;14.60;;;3.30;;
40717;SDS011;26405;51.850;-2.246;2023-11-19T12:48:59;11.00;;;2.95;;
40717;SDS011;26405;51.850;-2.246;2023-11-19T12:51:30;15.68;;;3.13;;
40717;SDS011;26405;51.850;-2.246;2023-11-19T12:53:56;12.70;;;3.00;;
40717;SDS011;26405;51.850;-2.246;2023-11-19T12:56:24;15.00;;;3.55;;
40717;SDS011;26405;51.850;-2.246;2023-11-19T12:58:52;15.93;;;3.47;;
40717;SDS011;26405;51.850;-2.246;2023-11-19T13:01:18;13.98;;;4.18;;
40717;SDS011;26405;51.850;-2.246;2023-11-19T13:03:47;15.95;;;3.63;;
40717;SDS011;26405;51.850;-2.246;2023-11-19T13:06:17;13.52;;;3.53;;
40717;SDS011;26405;51.850;-2.246;2023-11-19T13:08:45;18.30;;;3.80;;
40717;SDS011;26405;51.850;-2.246;2023-11-19T13:11:13;17.45;;;4.15;;
40717;SDS011;26405;51.850;-2.246;2023-11-19T13:14:02;15.23;;;3.70;;
40717;SDS011;26405;51.850;-2.246;2023-11-19T13:16:29;17.13;;;3.80;;
40717;SDS011;26405;51.850;-2.246;2023-11-19T13:18:58;17.60;;;4.57;;
40717;SDS011;26405;51.850;-2.246;2023-11-19T13:21:25;16.00;;;4.00;;
40717;SDS011;26405;51.850;-2.246;2023-11-19T13:23:50;15.95;;;3.80;;
40717;SDS011;26405;51.850;-2.246;2023-11-19T13:26:15;14.70;;;3.83;;
40717;SDS011;26405;51.850;-2.246;2023-11-19T13:28:41;15.32;;;3.70;;
40717;SDS011;26405;51.850;-2.246;2023-11-19T13:31:06;11.98;;;3.40;;
40717;SDS011;26405;51.850;-2.246;2023-11-19T13:33:32;14.30;;;3.65;;
40717;SDS011;26405;51.850;-2.246;2023-11-19T13:35:57;15.73;;;4.45;;
40717;SDS011;26405;51.850;-2.246;2023-11-19T13:38:23;13.98;;;3.80;;
40717;SDS011;26405;51.850;-2.246;2023-11-19T13:40:49;14.77;;;3.60;;
40717;SDS011;26405;51.850;-2.246;2023-11-19T13:43:14;15.40;;;3.90;;
40717;SDS011;26405;51.850;-2.246;2023-11-19T13:45:40;17.30;;;3.45;;
40717;SDS011;26405;51.850;-2.246;2023-11-19T13:48:05;14.73;;;3.58;;
40717;SDS011;26405;51.850;-2.246;2023-11-19T13:50:31;14.02;;;3.80;;
40717;SDS011;26405;51.850;-2.246;2023-11-19T13:52:57;21.07;;;4.67;;
40717;SDS011;26405;51.850;-2.246;2023-11-19T13:55:22;18.70;;;4.82;;
40717;SDS011;26405;51.850;-2.246;2023-11-19T13:57:48;18.50;;;3.97;;
40717;SDS011;26405;51.850;-2.246;2023-11-19T14:00:16;16.40;;;3.78;;
40717;SDS011;26405;51.850;-2.246;2023-11-19T14:02:46;18.02;;;4.15;;
40717;SDS011;26405;51.850;-2.246;2023-11-19T14:05:15;16.63;;;3.80;;
40717;SDS011;26405;51.850;-2.246;2023-11-19T14:07:44;16.65;;;3.75;;
40717;SDS011;26405;51.850;-2.246;2023-11-19T14:10:16;17.52;;;3.70;;
40717;SDS011;26405;51.850;-2.246;2023-11-19T14:12:41;17.20;;;4.00;;
40717;SDS011;26405;51.850;-2.246;2023-11-19T14:15:07;14.23;;;3.58;;
40717;SDS011;26405;51.850;-2.246;2023-11-19T14:17:34;17.75;;;4.05;;
40717;SDS011;26405;51.850;-2.246;2023-11-19T14:19:59;16.58;;;3.50;;
40717;SDS011;26405;51.850;-2.246;2023-11-19T14:22:25;12.43;;;3.17;;
40717;SDS011;26405;51.850;-2.246;2023-11-19T14:24:52;17.17;;;4.38;;
40717;SDS011;26405;51.850;-2.246;2023-11-19T14:27:20;16.15;;;4.10;;
40717;SDS011;26405;51.850;-2.246;2023-11-19T14:29:47;18.02;;;4.13;;
40717;SDS011;26405;51.850;-2.246;2023-11-19T14:32:12;21.40;;;4.68;;
40717;SDS011;26405;51.850;-2.246;2023-11-19T14:34:38;18.98;;;4.30;;
40717;SDS011;26405;51.850;-2.246;2023-11-19T14:37:03;15.00;;;3.60;;
40717;SDS011;26405;51.850;-2.246;2023-11-19T14:39:31;16.77;;;4.20;;
40717;SDS011;26405;51.850;-2.246;2023-11-19T14:41:57;15.35;;;3.65;;
40717;SDS011;26405;51.850;-2.246;2023-11-19T14:44:32;18.73;;;4.07;;
40717;SDS011;26405;51.850;-2.246;2023-11-19T14:46:57;18.48;;;4.25;;
40717;SDS011;26405;51.850;-2.246;2023-11-19T14:49:23;15.70;;;4.15;;
40717;SDS011;26405;51.850;-2.246;2023-11-19T14:51:49;18.70;;;4.25;;
40717;SDS011;26405;51.850;-2.246;2023-11-19T14:54:14;18.15;;;4.28;;
40717;SDS011;26405;51.850;-2.246;2023-11-19T14:56:43;19.95;;;4.50;;
40717;SDS011;26405;51.850;-2.246;2023-11-19T14:59:08;18.85;;;4.22;;
40717;SDS011;26405;51.850;-2.246;2023-11-19T15:01:33;15.70;;;4.15;;